createdAt,value
2017-05-25T00:00:06.116Z,1010.53
2017-05-25T00:00:46.607Z,1010.47
2017-05-25T00:01:27.119Z,1010.52
2017-05-25T00:02:07.602Z,1010.47
2017-05-25T00:02:48.097Z,1010.52
2017-05-25T00:03:28.597Z,1010.53
2017-05-25T00:04:09.091Z,1010.5
2017-05-25T00:04:49.584Z,1010.47
2017-05-25T00:05:30.075Z,1010.47
2017-05-25T00:06:10.572Z,1010.44
2017-05-25T00:06:51.057Z,1010.46
2017-05-25T00:07:31.556Z,1010.48
2017-05-25T00:08:12.054Z,1010.47
2017-05-25T00:08:52.541Z,1010.46
2017-05-25T00:09:33.047Z,1010.48
2017-05-25T00:10:13.518Z,1010.49
2017-05-25T00:10:54.019Z,1010.47
2017-05-25T00:11:34.512Z,1010.45
2017-05-25T00:12:15.001Z,1010.45
2017-05-25T00:12:55.493Z,1010.42
2017-05-25T00:13:35.985Z,1010.43
2017-05-25T00:14:16.489Z,1010.43
2017-05-25T00:14:57.002Z,1010.45
2017-05-25T00:15:37.485Z,1010.45
2017-05-25T00:16:17.985Z,1010.5
2017-05-25T00:16:58.485Z,1010.48
2017-05-25T00:17:38.980Z,1010.48
2017-05-25T00:18:19.470Z,1010.47
2017-05-25T00:18:59.969Z,1010.47
2017-05-25T00:19:40.452Z,1010.49
2017-05-25T00:20:20.943Z,1010.48
2017-05-25T00:21:02.393Z,1010.49
2017-05-25T00:21:42.862Z,1010.45
2017-05-25T00:22:23.332Z,1010.46
2017-05-25T00:23:03.831Z,1010.44
2017-05-25T00:23:45.124Z,1010.46
2017-05-25T00:24:25.611Z,1010.47
2017-05-25T00:25:06.108Z,1010.45
2017-05-25T00:25:46.602Z,1010.47
2017-05-25T00:26:27.094Z,1010.44
2017-05-25T00:27:07.585Z,1010.43
2017-05-25T00:27:48.088Z,1010.41
2017-05-25T00:28:28.570Z,1010.44
2017-05-25T00:29:09.082Z,1010.42
2017-05-25T00:29:49.573Z,1010.4
2017-05-25T00:30:30.073Z,1010.4
2017-05-25T00:31:10.565Z,1010.38
2017-05-25T00:31:51.054Z,1010.38
2017-05-25T00:32:31.559Z,1010.41
2017-05-25T00:33:12.044Z,1010.38
2017-05-25T00:33:52.526Z,1010.37
2017-05-25T00:34:33.017Z,1010.44
2017-05-25T00:35:14.398Z,1010.42
2017-05-25T00:35:54.901Z,1010.43
2017-05-25T00:36:35.384Z,1010.42
2017-05-25T00:37:15.888Z,1010.39
2017-05-25T00:37:56.377Z,1010.38
2017-05-25T00:38:37.548Z,1010.38
2017-05-25T00:39:18.022Z,1010.36
2017-05-25T00:39:58.504Z,1010.34
2017-05-25T00:40:38.973Z,1010.34
2017-05-25T00:41:20.025Z,1010.35
2017-05-25T00:42:00.532Z,1010.34
2017-05-25T00:42:41.018Z,1010.31
2017-05-25T00:43:21.504Z,1010.3
2017-05-25T00:44:02.056Z,1010.33
2017-05-25T00:44:42.522Z,1010.32
2017-05-25T00:45:23.028Z,1010.31
2017-05-25T00:46:03.523Z,1010.32
2017-05-25T00:46:44.038Z,1010.33
2017-05-25T00:47:24.536Z,1010.33
2017-05-25T00:48:05.027Z,1010.35
2017-05-25T00:48:45.520Z,1010.34
2017-05-25T00:49:26.011Z,1010.34
2017-05-25T00:50:06.495Z,1010.31
2017-05-25T00:50:47.001Z,1010.33
2017-05-25T00:51:27.486Z,1010.3
2017-05-25T00:52:08.551Z,1010.25
2017-05-25T00:52:50.039Z,1010.29
2017-05-25T00:53:30.542Z,1010.25
2017-05-25T00:54:11.022Z,1010.24
2017-05-25T00:54:51.516Z,1010.24
2017-05-25T00:55:32.002Z,1010.28
2017-05-25T00:56:12.507Z,1010.24
2017-05-25T00:56:52.993Z,1010.22
2017-05-25T00:57:33.474Z,1010.25
2017-05-25T00:58:13.959Z,1010.24
2017-05-25T00:58:54.450Z,1010.26
2017-05-25T00:59:34.930Z,1010.25
2017-05-25T01:00:16.408Z,1010.23
2017-05-25T01:00:56.896Z,1010.21
2017-05-25T01:01:37.396Z,1010.22
2017-05-25T01:02:18.550Z,1010.21
2017-05-25T01:02:59.031Z,1010.22
2017-05-25T01:03:39.521Z,1010.25
2017-05-25T01:04:20.004Z,1010.24
2017-05-25T01:05:00.502Z,1010.22
2017-05-25T01:05:41.825Z,1010.22
2017-05-25T01:06:22.295Z,1010.24
2017-05-25T01:07:02.798Z,1010.23
2017-05-25T01:07:43.302Z,1010.22
2017-05-25T01:08:23.779Z,1010.24
2017-05-25T01:09:04.273Z,1010.28
2017-05-25T01:09:44.772Z,1010.26
2017-05-25T01:10:25.261Z,1010.24
2017-05-25T01:11:05.758Z,1010.24
2017-05-25T01:11:47.143Z,1010.24
2017-05-25T01:12:27.630Z,1010.2
2017-05-25T01:13:08.125Z,1010.23
2017-05-25T01:13:49.142Z,1010.21
2017-05-25T01:14:29.631Z,1010.19
2017-05-25T01:15:10.120Z,1010.2
2017-05-25T01:15:50.616Z,1010.15
2017-05-25T01:16:31.102Z,1010.16
2017-05-25T01:17:11.600Z,1010.22
2017-05-25T01:17:52.091Z,1010.19
2017-05-25T01:18:32.580Z,1010.17
2017-05-25T01:19:13.087Z,1010.2
2017-05-25T01:19:53.587Z,1010.19
2017-05-25T01:20:34.077Z,1010.2
2017-05-25T01:21:14.583Z,1010.2
2017-05-25T01:21:55.065Z,1010.18
2017-05-25T01:22:35.568Z,1010.19
2017-05-25T01:23:16.057Z,1010.15
2017-05-25T01:23:56.548Z,1010.17
2017-05-25T01:24:37.047Z,1010.15
2017-05-25T01:25:17.534Z,1010.17
2017-05-25T01:25:58.024Z,1010.17
2017-05-25T01:26:39.418Z,1010.14
2017-05-25T01:27:19.904Z,1010.16
2017-05-25T01:28:01.143Z,1010.17
2017-05-25T01:28:41.629Z,1010.19
2017-05-25T01:29:22.131Z,1010.2
2017-05-25T01:30:02.621Z,1010.2
2017-05-25T01:30:43.104Z,1010.18
2017-05-25T01:31:23.580Z,1010.18
2017-05-25T01:32:04.104Z,1010.21
2017-05-25T01:32:44.581Z,1010.19
2017-05-25T01:33:25.069Z,1010.19
2017-05-25T01:34:05.569Z,1010.15
2017-05-25T01:34:46.060Z,1010.17
2017-05-25T01:35:26.548Z,1010.2
2017-05-25T01:36:07.919Z,1010.24
2017-05-25T01:36:48.426Z,1010.21
2017-05-25T01:37:28.904Z,1010.19
2017-05-25T01:38:09.399Z,1010.19
2017-05-25T01:38:49.903Z,1010.19
2017-05-25T01:39:31.320Z,1010.21
2017-05-25T01:40:11.826Z,1010.18
2017-05-25T01:40:52.827Z,1010.19
2017-05-25T01:41:33.313Z,1010.22
2017-05-25T01:42:13.814Z,1010.21
2017-05-25T01:42:54.305Z,1010.19
2017-05-25T01:43:34.790Z,1010.21
2017-05-25T01:44:15.285Z,1010.24
2017-05-25T01:44:55.774Z,1010.21
2017-05-25T01:45:36.261Z,1010.24
2017-05-25T01:46:16.764Z,1010.24
2017-05-25T01:46:57.253Z,1010.24
2017-05-25T01:47:37.727Z,1010.27
2017-05-25T01:48:18.199Z,1010.26
2017-05-25T01:48:58.702Z,1010.29
2017-05-25T01:49:39.193Z,1010.28
2017-05-25T01:50:19.670Z,1010.28
2017-05-25T01:51:00.172Z,1010.31
2017-05-25T01:51:40.663Z,1010.29
2017-05-25T01:52:21.148Z,1010.3
2017-05-25T01:53:01.690Z,1010.31
2017-05-25T01:53:42.180Z,1010.31
2017-05-25T01:54:22.671Z,1010.29
2017-05-25T01:55:03.156Z,1010.28
2017-05-25T01:55:43.636Z,1010.3
2017-05-25T01:56:24.116Z,1010.3
2017-05-25T01:57:04.631Z,1010.28
2017-05-25T01:57:45.115Z,1010.32
2017-05-25T01:58:25.615Z,1010.32
2017-05-25T01:59:07.055Z,1010.29
2017-05-25T01:59:47.541Z,1010.28
2017-05-25T02:00:28.035Z,1010.23
2017-05-25T02:01:08.518Z,1010.24
2017-05-25T02:01:49.008Z,1010.22
2017-05-25T02:02:29.509Z,1010.24
2017-05-25T02:03:10.002Z,1010.29
2017-05-25T02:03:50.486Z,1010.22
2017-05-25T02:04:30.984Z,1010.25
2017-05-25T02:05:11.468Z,1010.22
2017-05-25T02:05:51.943Z,1010.25
2017-05-25T02:06:32.452Z,1010.21
2017-05-25T02:07:12.943Z,1010.21
2017-05-25T02:07:53.429Z,1010.2
2017-05-25T02:08:33.908Z,1010.18
2017-05-25T02:09:14.470Z,1010.18
2017-05-25T02:09:54.973Z,1010.13
2017-05-25T02:10:35.507Z,1010.14
2017-05-25T02:11:16.839Z,1010.17
2017-05-25T02:11:57.336Z,1010.16
2017-05-25T02:12:37.834Z,1010.12
2017-05-25T02:13:18.325Z,1010.11
2017-05-25T02:13:58.955Z,1010.11
2017-05-25T02:14:40.158Z,1010.12
2017-05-25T02:15:20.662Z,1010.12
2017-05-25T02:16:01.151Z,1010.13
2017-05-25T02:16:41.639Z,1010.13
2017-05-25T02:17:22.119Z,1010.13
2017-05-25T02:18:02.614Z,1010.15
2017-05-25T02:18:43.929Z,1010.16
2017-05-25T02:19:24.411Z,1010.16
2017-05-25T02:20:05.843Z,1010.11
2017-05-25T02:20:46.332Z,1010.12
2017-05-25T02:21:26.832Z,1010.1
2017-05-25T02:22:07.321Z,1010.1
2017-05-25T02:22:47.809Z,1010.11
2017-05-25T02:23:28.301Z,1010.05
2017-05-25T02:24:08.797Z,1010.06
2017-05-25T02:24:49.289Z,1010.05
2017-05-25T02:25:29.794Z,1010.02
2017-05-25T02:26:10.279Z,1010.03
2017-05-25T02:26:50.780Z,1010.01
2017-05-25T02:27:32.154Z,1010.01
2017-05-25T02:28:13.162Z,1010
2017-05-25T02:28:53.655Z,1009.98
2017-05-25T02:31:11.460Z,1009.95
2017-05-25T02:31:51.968Z,1009.97
2017-05-25T02:32:32.461Z,1009.99
2017-05-25T02:33:12.951Z,1010.01
2017-05-25T02:33:53.459Z,1010.01
2017-05-25T02:34:33.946Z,1010.01
2017-05-25T02:35:14.436Z,1009.99
2017-05-25T02:35:54.928Z,1010.01
2017-05-25T02:36:35.421Z,1010.02
2017-05-25T02:37:15.913Z,1010.01
2017-05-25T02:37:56.400Z,1009.97
2017-05-25T02:38:36.893Z,1009.99
2017-05-25T02:39:17.388Z,1009.95
2017-05-25T02:39:57.879Z,1009.95
2017-05-25T02:40:38.367Z,1009.96
2017-05-25T02:41:18.876Z,1009.96
2017-05-25T02:41:59.360Z,1009.96
2017-05-25T02:42:39.869Z,1010.02
2017-05-25T02:43:21.051Z,1010.01
2017-05-25T02:44:02.371Z,1009.95
2017-05-25T02:44:42.859Z,1010
2017-05-25T02:45:23.360Z,1010
2017-05-25T02:46:03.848Z,1010
2017-05-25T02:46:44.339Z,1009.98
2017-05-25T02:47:24.823Z,1009.97
2017-05-25T02:48:05.323Z,1009.96
2017-05-25T02:48:45.816Z,1009.98
2017-05-25T02:49:26.316Z,1009.96
2017-05-25T02:50:06.818Z,1009.98
2017-05-25T02:50:47.314Z,1009.94
2017-05-25T02:51:27.819Z,1009.96
2017-05-25T02:52:08.299Z,1009.97
2017-05-25T02:52:48.782Z,1009.95
2017-05-25T02:53:29.281Z,1009.96
2017-05-25T02:54:09.756Z,1009.92
2017-05-25T02:54:50.260Z,1009.95
2017-05-25T02:55:30.754Z,1009.95
2017-05-25T02:56:11.244Z,1009.96
2017-05-25T02:56:51.726Z,1009.93
2017-05-25T02:57:32.227Z,1009.95
2017-05-25T02:58:12.716Z,1009.92
2017-05-25T02:58:53.198Z,1009.93
2017-05-25T02:59:33.701Z,1009.93
2017-05-25T03:00:14.191Z,1009.93
2017-05-25T03:00:54.675Z,1009.93
2017-05-25T03:01:35.173Z,1009.99
2017-05-25T03:02:15.665Z,1009.98
2017-05-25T03:02:56.163Z,1010
2017-05-25T03:03:36.667Z,1010.01
2017-05-25T03:04:17.143Z,1010
2017-05-25T03:04:57.630Z,1010.03
2017-05-25T03:05:38.135Z,1010.04
2017-05-25T03:06:19.552Z,1010.04
2017-05-25T03:07:00.023Z,1010.05
2017-05-25T03:07:40.524Z,1010.04
2017-05-25T03:08:21.017Z,1010.07
2017-05-25T03:09:01.502Z,1010.04
2017-05-25T03:09:41.993Z,1010.1
2017-05-25T03:10:22.491Z,1010.11
2017-05-25T03:11:02.988Z,1010.09
2017-05-25T03:11:43.485Z,1010.12
2017-05-25T03:12:23.971Z,1010.14
2017-05-25T03:13:04.964Z,1010.14
2017-05-25T03:13:46.372Z,1010.14
2017-05-25T03:14:26.874Z,1010.16
2017-05-25T03:15:07.362Z,1010.15
2017-05-25T03:15:47.851Z,1010.14
2017-05-25T03:16:28.340Z,1010.15
2017-05-25T03:17:08.824Z,1010.13
2017-05-25T03:17:49.295Z,1010.09
2017-05-25T03:18:29.777Z,1010.15
2017-05-25T03:19:10.259Z,1010.17
2017-05-25T03:19:50.754Z,1010.13
2017-05-25T03:20:32.178Z,1010.12
2017-05-25T03:21:12.656Z,1010.17
2017-05-25T03:21:53.160Z,1010.17
2017-05-25T03:22:33.644Z,1010.18
2017-05-25T03:23:14.134Z,1010.16
2017-05-25T03:23:54.636Z,1010.21
2017-05-25T03:24:35.114Z,1010.25
2017-05-25T03:25:15.616Z,1010.22
2017-05-25T03:25:56.106Z,1010.22
2017-05-25T03:26:36.606Z,1010.28
2017-05-25T03:27:17.092Z,1010.26
2017-05-25T03:27:57.582Z,1010.22
2017-05-25T03:28:38.071Z,1010.21
2017-05-25T03:29:18.565Z,1010.22
2017-05-25T03:29:59.061Z,1010.25
2017-05-25T03:30:39.553Z,1010.19
2017-05-25T03:31:20.041Z,1010.2
2017-05-25T03:32:00.535Z,1010.25
2017-05-25T03:32:41.028Z,1010.21
2017-05-25T03:33:21.522Z,1010.2
2017-05-25T03:34:02.013Z,1010.18
2017-05-25T03:34:42.502Z,1010.2
2017-05-25T03:35:23.002Z,1010.19
2017-05-25T03:36:03.495Z,1010.21
2017-05-25T03:36:43.980Z,1010.23
2017-05-25T03:37:24.479Z,1010.2
2017-05-25T03:38:04.979Z,1010.25
2017-05-25T03:38:45.473Z,1010.27
2017-05-25T03:39:25.951Z,1010.25
2017-05-25T03:40:06.449Z,1010.26
2017-05-25T03:40:46.938Z,1010.31
2017-05-25T03:41:27.415Z,1010.28
2017-05-25T03:42:07.900Z,1010.26
2017-05-25T03:42:48.389Z,1010.31
2017-05-25T03:43:28.865Z,1010.31
2017-05-25T03:44:09.359Z,1010.29
2017-05-25T03:44:49.859Z,1010.29
2017-05-25T03:45:30.348Z,1010.28
2017-05-25T03:46:10.842Z,1010.31
2017-05-25T03:46:51.337Z,1010.3
2017-05-25T03:47:31.824Z,1010.32
2017-05-25T03:48:12.326Z,1010.29
2017-05-25T03:48:52.817Z,1010.3
2017-05-25T03:49:33.301Z,1010.31
2017-05-25T03:50:13.793Z,1010.33
2017-05-25T03:50:54.294Z,1010.33
2017-05-25T03:51:35.477Z,1010.33
2017-05-25T03:52:15.955Z,1010.32
2017-05-25T03:52:56.450Z,1010.33
2017-05-25T03:53:36.946Z,1010.36
2017-05-25T03:54:17.430Z,1010.35
2017-05-25T03:54:57.928Z,1010.35
2017-05-25T03:55:38.424Z,1010.37
2017-05-25T03:56:18.897Z,1010.37
2017-05-25T03:56:59.387Z,1010.39
2017-05-25T03:57:40.373Z,1010.37
2017-05-25T03:59:32.907Z,1010.36
2017-05-25T04:00:13.407Z,1010.34
2017-05-25T04:00:54.408Z,1010.35
2017-05-25T04:01:34.893Z,1010.33
2017-05-25T04:02:15.384Z,1010.3
2017-05-25T04:02:55.871Z,1010.3
2017-05-25T04:03:36.361Z,1010.32
2017-05-25T04:04:16.865Z,1010.29
2017-05-25T04:04:57.358Z,1010.31
2017-05-25T04:05:37.853Z,1010.3
2017-05-25T04:06:18.343Z,1010.31
2017-05-25T04:06:58.863Z,1010.28
2017-05-25T04:07:40.840Z,1010.29
2017-05-25T04:08:21.326Z,1010.28
2017-05-25T04:09:01.831Z,1010.23
2017-05-25T04:09:42.321Z,1010.26
2017-05-25T04:10:22.796Z,1010.24
2017-05-25T04:11:03.296Z,1010.2
2017-05-25T04:11:44.720Z,1010.23
2017-05-25T04:12:25.197Z,1010.2
2017-05-25T04:13:05.704Z,1010.18
2017-05-25T04:13:47.007Z,1010.19
2017-05-25T04:14:27.487Z,1010.16
2017-05-25T04:15:08.730Z,1010.16
2017-05-25T04:15:49.222Z,1010.19
2017-05-25T04:18:17.727Z,1010.19
2017-05-25T04:18:58.210Z,1010.19
2017-05-25T04:19:38.709Z,1010.17
2017-05-25T04:20:19.190Z,1010.17
2017-05-25T04:20:59.677Z,1010.19
2017-05-25T04:21:40.185Z,1010.17
2017-05-25T04:22:20.670Z,1010.19
2017-05-25T04:23:01.155Z,1010.22
2017-05-25T04:24:58.760Z,1010.22
2017-05-25T04:25:39.248Z,1010.23
2017-05-25T04:26:19.732Z,1010.23
2017-05-25T04:27:00.217Z,1010.25
2017-05-25T04:27:40.731Z,1010.27
2017-05-25T04:28:21.216Z,1010.26
2017-05-25T04:29:01.697Z,1010.27
2017-05-25T04:29:42.160Z,1010.28
2017-05-25T04:30:22.656Z,1010.29
2017-05-25T04:31:03.146Z,1010.32
2017-05-25T04:31:43.632Z,1010.3
2017-05-25T04:32:24.754Z,1010.32
2017-05-25T04:33:05.237Z,1010.32
2017-05-25T04:33:46.568Z,1010.34
2017-05-25T04:34:27.062Z,1010.33
2017-05-25T04:35:07.546Z,1010.33
2017-05-25T04:35:48.037Z,1010.31
2017-05-25T04:36:28.548Z,1010.32
2017-05-25T04:37:10.344Z,1010.32
2017-05-25T04:37:50.827Z,1010.33
2017-05-25T04:38:31.322Z,1010.32
2017-05-25T04:39:11.816Z,1010.33
2017-05-25T04:39:52.278Z,1010.38
2017-05-25T04:40:32.770Z,1010.33
2017-05-25T04:41:13.265Z,1010.34
2017-05-25T04:41:53.753Z,1010.35
2017-05-25T04:42:34.286Z,1010.35
2017-05-25T04:43:14.741Z,1010.33
2017-05-25T04:43:55.234Z,1010.36
2017-05-25T04:44:35.728Z,1010.33
2017-05-25T04:45:16.241Z,1010.4
2017-05-25T04:45:56.717Z,1010.33
2017-05-25T04:48:24.654Z,1010.42
2017-05-25T04:49:05.135Z,1010.44
2017-05-25T04:49:45.621Z,1010.47
2017-05-25T04:50:26.114Z,1010.45
2017-05-25T04:51:06.620Z,1010.47
2017-05-25T04:51:47.108Z,1010.44
2017-05-25T04:52:27.588Z,1010.46
2017-05-25T04:53:08.087Z,1010.45
2017-05-25T04:53:48.555Z,1010.45
2017-05-25T04:54:29.039Z,1010.45
2017-05-25T04:55:09.535Z,1010.51
2017-05-25T04:55:50.026Z,1010.54
2017-05-25T04:56:30.514Z,1010.51
2017-05-25T04:57:10.998Z,1010.57
2017-05-25T04:57:51.489Z,1010.6
2017-05-25T04:58:31.995Z,1010.66
2017-05-25T04:59:12.485Z,1010.6
2017-05-25T04:59:52.979Z,1010.6
2017-05-25T05:00:33.477Z,1010.61
2017-05-25T05:01:13.958Z,1010.62
2017-05-25T05:01:54.450Z,1010.64
2017-05-25T05:02:34.920Z,1010.63
2017-05-25T05:03:15.410Z,1010.62
2017-05-25T05:03:55.900Z,1010.63
2017-05-25T05:04:36.383Z,1010.65
2017-05-25T05:05:16.883Z,1010.64
2017-05-25T05:05:57.385Z,1010.66
2017-05-25T05:06:37.870Z,1010.73
2017-05-25T05:07:18.367Z,1010.72
2017-05-25T05:07:58.845Z,1010.71
2017-05-25T05:08:39.341Z,1010.73
2017-05-25T05:10:52.072Z,1010.71
2017-05-25T05:11:32.558Z,1010.72
2017-05-25T05:12:13.046Z,1010.71
2017-05-25T05:12:53.532Z,1010.71
2017-05-25T05:13:34.879Z,1010.7
2017-05-25T05:14:15.367Z,1010.69
2017-05-25T05:14:55.870Z,1010.69
2017-05-25T05:15:36.370Z,1010.7
2017-05-25T05:16:16.854Z,1010.69
2017-05-25T05:16:57.959Z,1010.68
2017-05-25T05:17:38.464Z,1010.73
2017-05-25T05:18:18.951Z,1010.74
2017-05-25T05:18:59.445Z,1010.72
2017-05-25T05:19:39.932Z,1010.72
2017-05-25T05:20:20.416Z,1010.67
2017-05-25T05:21:01.641Z,1010.69
2017-05-25T05:21:42.129Z,1010.7
2017-05-25T05:22:22.621Z,1010.69
2017-05-25T05:23:03.103Z,1010.64
2017-05-25T05:23:43.613Z,1010.65
2017-05-25T05:24:24.084Z,1010.64
2017-05-25T05:25:04.558Z,1010.64
2017-05-25T05:25:45.039Z,1010.65
2017-05-25T05:26:25.542Z,1010.66
2017-05-25T05:27:06.015Z,1010.67
2017-05-25T05:27:47.062Z,1010.64
2017-05-25T05:28:27.544Z,1010.66
2017-05-25T05:29:08.048Z,1010.63
2017-05-25T05:29:48.541Z,1010.66
2017-05-25T05:30:29.013Z,1010.68
2017-05-25T05:31:10.147Z,1010.67
2017-05-25T05:31:50.640Z,1010.68
2017-05-25T05:32:31.114Z,1010.67
2017-05-25T05:33:11.603Z,1010.66
2017-05-25T05:33:52.118Z,1010.68
2017-05-25T05:34:32.596Z,1010.69
2017-05-25T05:35:13.644Z,1010.68
2017-05-25T05:35:54.139Z,1010.65
2017-05-25T05:36:34.633Z,1010.7
2017-05-25T05:37:15.117Z,1010.66
2017-05-25T05:37:55.588Z,1010.69
2017-05-25T05:38:36.107Z,1010.71
2017-05-25T05:39:16.597Z,1010.73
2017-05-25T05:39:57.073Z,1010.74
2017-05-25T05:40:38.374Z,1010.74
2017-05-25T05:41:18.869Z,1010.77
2017-05-25T05:41:59.350Z,1010.81
2017-05-25T05:42:39.831Z,1010.83
2017-05-25T05:43:20.331Z,1010.76
2017-05-25T05:44:00.831Z,1010.77
2017-05-25T05:44:41.324Z,1010.76
2017-05-25T05:45:21.799Z,1010.74
2017-05-25T05:46:02.305Z,1010.72
2017-05-25T05:46:42.811Z,1010.73
2017-05-25T05:47:23.293Z,1010.76
2017-05-25T05:48:03.805Z,1010.75
2017-05-25T05:48:44.279Z,1010.73
2017-05-25T05:49:24.765Z,1010.73
2017-05-25T05:50:05.256Z,1010.74
2017-05-25T05:50:45.753Z,1010.7
2017-05-25T05:51:26.255Z,1010.75
2017-05-25T05:52:06.744Z,1010.74
2017-05-25T05:52:47.772Z,1010.77
2017-05-25T05:53:30.143Z,1010.75
2017-05-25T05:54:11.480Z,1010.78
2017-05-25T05:54:51.974Z,1010.77
2017-05-25T05:55:32.474Z,1010.79
2017-05-25T05:56:12.967Z,1010.75
2017-05-25T05:56:53.976Z,1010.73
2017-05-25T05:57:34.458Z,1010.75
2017-05-25T05:58:15.782Z,1010.72
2017-05-25T05:58:56.319Z,1010.72
2017-05-25T05:59:36.779Z,1010.72
2017-05-25T06:00:17.283Z,1010.72
2017-05-25T06:00:57.779Z,1010.75
2017-05-25T06:01:38.276Z,1010.73
2017-05-25T06:02:18.755Z,1010.77
2017-05-25T06:02:59.249Z,1010.79
2017-05-25T06:03:39.750Z,1010.83
2017-05-25T06:04:20.237Z,1010.83
2017-05-25T06:05:00.727Z,1010.85
2017-05-25T06:05:41.206Z,1010.83
2017-05-25T06:06:21.704Z,1010.83
2017-05-25T06:07:02.198Z,1010.81
2017-05-25T06:07:42.700Z,1010.83
2017-05-25T06:08:23.166Z,1010.83
2017-05-25T06:09:04.281Z,1010.83
2017-05-25T06:09:44.765Z,1010.74
2017-05-25T06:10:25.258Z,1010.83
2017-05-25T06:11:05.760Z,1010.77
2017-05-25T06:11:46.241Z,1010.81
2017-05-25T06:12:27.492Z,1010.86
2017-05-25T06:13:07.985Z,1010.87
2017-05-25T06:13:48.473Z,1010.83
2017-05-25T06:14:28.962Z,1010.84
2017-05-25T06:15:09.988Z,1010.85
2017-05-25T06:15:51.068Z,1010.88
2017-05-25T06:16:31.567Z,1010.82
2017-05-25T06:17:12.060Z,1010.86
2017-05-25T06:17:52.549Z,1010.89
2017-05-25T06:18:33.038Z,1010.9
2017-05-25T06:19:13.537Z,1010.88
2017-05-25T06:19:54.025Z,1010.92
2017-05-25T06:20:34.523Z,1010.89
2017-05-25T06:21:15.661Z,1010.91
2017-05-25T06:23:14.195Z,1010.95
2017-05-25T06:23:54.686Z,1010.95
2017-05-25T06:24:35.184Z,1010.99
2017-05-25T06:25:15.668Z,1010.99
2017-05-25T06:25:56.161Z,1011
2017-05-25T06:26:36.660Z,1011.02
2017-05-25T06:27:17.149Z,1011.02
2017-05-25T06:27:57.631Z,1011.01
2017-05-25T06:28:38.129Z,1011.06
2017-05-25T06:29:19.740Z,1011.03
2017-05-25T06:30:00.642Z,1011.07
2017-05-25T06:30:41.123Z,1011.06
2017-05-25T06:31:21.630Z,1011.05
2017-05-25T06:32:02.108Z,1011.03
2017-05-25T06:32:42.592Z,1011.05
2017-05-25T06:33:23.066Z,1011.03
2017-05-25T06:34:03.562Z,1011.02
2017-05-25T06:34:44.088Z,1011.02
2017-05-25T06:35:24.575Z,1011.05
2017-05-25T06:36:05.072Z,1011.1
2017-05-25T06:36:45.609Z,1011.11
2017-05-25T06:37:26.050Z,1011.12
2017-05-25T06:38:06.534Z,1011.13
2017-05-25T06:38:47.033Z,1011.15
2017-05-25T06:39:27.533Z,1011.21
2017-05-25T06:40:09.001Z,1011.17
2017-05-25T06:40:49.492Z,1011.22
2017-05-25T06:41:29.996Z,1011.16
2017-05-25T06:42:10.487Z,1011.16
2017-05-25T06:42:50.971Z,1011.13
2017-05-25T06:43:31.500Z,1011.14
2017-05-25T06:44:11.983Z,1011.13
2017-05-25T06:44:52.484Z,1011.16
2017-05-25T06:45:32.976Z,1011.15
2017-05-25T06:46:13.454Z,1011.12
2017-05-25T06:46:53.940Z,1011.16
2017-05-25T06:47:34.417Z,1011.19
2017-05-25T06:48:14.913Z,1011.2
2017-05-25T06:48:55.393Z,1011.2
2017-05-25T06:49:35.892Z,1011.2
2017-05-25T06:50:16.376Z,1011.14
2017-05-25T06:50:56.861Z,1011.17
2017-05-25T06:51:37.353Z,1011.18
2017-05-25T06:52:17.862Z,1011.21
2017-05-25T06:52:58.321Z,1011.19
2017-05-25T06:53:39.506Z,1011.2
2017-05-25T06:54:20.009Z,1011.2
2017-05-25T06:55:00.518Z,1011.26
2017-05-25T06:55:40.964Z,1011.18
2017-05-25T06:56:21.443Z,1011.26
2017-05-25T06:57:01.920Z,1011.27
2017-05-25T06:57:42.422Z,1011.25
2017-05-25T06:58:22.938Z,1011.28
2017-05-25T06:59:03.413Z,1011.23
2017-05-25T06:59:43.898Z,1011.25
2017-05-25T07:00:24.395Z,1011.26
2017-05-25T07:01:05.683Z,1011.25
2017-05-25T07:01:46.164Z,1011.3
2017-05-25T07:02:26.660Z,1011.29
2017-05-25T07:03:07.150Z,1011.28
2017-05-25T07:03:47.634Z,1011.3
2017-05-25T07:04:28.147Z,1011.32
2017-05-25T07:05:09.439Z,1011.31
2017-05-25T07:05:49.933Z,1011.33
2017-05-25T07:06:31.012Z,1011.26
2017-05-25T07:08:43.738Z,1011.33
2017-05-25T07:09:24.237Z,1011.28
2017-05-25T07:10:04.734Z,1011.31
2017-05-25T07:10:45.220Z,1011.27
2017-05-25T07:11:25.718Z,1011.32
2017-05-25T07:12:06.218Z,1011.32
2017-05-25T07:12:46.699Z,1011.34
2017-05-25T07:13:27.201Z,1011.26
2017-05-25T07:14:07.693Z,1011.34
2017-05-25T07:14:48.184Z,1011.34
2017-05-25T07:15:28.673Z,1011.32
2017-05-25T07:16:09.175Z,1011.32
2017-05-25T07:16:49.677Z,1011.34
2017-05-25T07:17:30.177Z,1011.35
2017-05-25T07:18:11.310Z,1011.32
2017-05-25T07:18:51.798Z,1011.32
2017-05-25T07:19:32.298Z,1011.36
2017-05-25T07:20:12.792Z,1011.31
2017-05-25T07:20:53.291Z,1011.36
2017-05-25T07:21:33.793Z,1011.37
2017-05-25T07:22:14.946Z,1011.35
2017-05-25T07:22:55.433Z,1011.37
2017-05-25T07:23:35.926Z,1011.38
2017-05-25T07:24:16.416Z,1011.37
2017-05-25T07:24:56.908Z,1011.41
2017-05-25T07:25:37.402Z,1011.41
2017-05-25T07:26:17.898Z,1011.42
2017-05-25T07:26:58.404Z,1011.43
2017-05-25T07:27:38.904Z,1011.4
2017-05-25T07:28:19.401Z,1011.45
2017-05-25T07:28:59.894Z,1011.45
2017-05-25T07:29:40.384Z,1011.43
2017-05-25T07:30:20.874Z,1011.47
2017-05-25T07:31:01.370Z,1011.46
2017-05-25T07:31:41.877Z,1011.48
2017-05-25T07:32:23.239Z,1011.49
2017-05-25T07:33:03.736Z,1011.48
2017-05-25T07:33:44.222Z,1011.47
2017-05-25T07:34:24.712Z,1011.52
2017-05-25T07:35:05.945Z,1011.48
2017-05-25T07:35:46.447Z,1011.51
2017-05-25T07:36:26.944Z,1011.46
2017-05-25T07:37:07.433Z,1011.47
2017-05-25T07:37:47.936Z,1011.52
2017-05-25T07:38:28.413Z,1011.5
2017-05-25T07:39:08.908Z,1011.57
2017-05-25T07:39:49.404Z,1011.56
2017-05-25T07:40:29.884Z,1011.54
2017-05-25T07:41:11.321Z,1011.57
2017-05-25T07:41:51.820Z,1011.56
2017-05-25T07:42:32.315Z,1011.55
2017-05-25T07:43:12.819Z,1011.52
2017-05-25T07:43:53.305Z,1011.57
2017-05-25T07:44:33.797Z,1011.57
2017-05-25T07:45:14.295Z,1011.58
2017-05-25T07:45:54.802Z,1011.57
2017-05-25T07:46:35.267Z,1011.55
2017-05-25T07:47:15.772Z,1011.56
2017-05-25T07:47:56.249Z,1011.58
2017-05-25T07:48:37.647Z,1011.53
2017-05-25T07:49:18.152Z,1011.54
2017-05-25T07:49:58.639Z,1011.56
2017-05-25T07:50:39.133Z,1011.54
2017-05-25T07:51:19.626Z,1011.53
2017-05-25T07:52:00.642Z,1011.56
2017-05-25T07:52:41.115Z,1011.6
2017-05-25T07:53:21.608Z,1011.59
2017-05-25T07:54:02.107Z,1011.61
2017-05-25T07:54:42.590Z,1011.63
2017-05-25T07:55:24.050Z,1011.59
2017-05-25T07:56:04.545Z,1011.62
2017-05-25T07:56:46.831Z,1011.62
2017-05-25T07:57:28.325Z,1011.65
2017-05-25T07:58:09.325Z,1011.67
2017-05-25T07:58:49.816Z,1011.72
2017-05-25T07:59:30.965Z,1011.7
2017-05-25T08:00:11.452Z,1011.72
2017-05-25T08:00:51.934Z,1011.68
2017-05-25T08:01:32.429Z,1011.71
2017-05-25T08:02:13.459Z,1011.63
2017-05-25T08:02:53.967Z,1011.67
2017-05-25T08:03:34.456Z,1011.66
2017-05-25T08:04:14.982Z,1011.69
2017-05-25T08:04:55.471Z,1011.68
2017-05-25T08:05:35.973Z,1011.69
2017-05-25T08:06:16.477Z,1011.67
2017-05-25T08:06:56.960Z,1011.74
2017-05-25T08:07:37.450Z,1011.66
2017-05-25T08:08:17.947Z,1011.67
2017-05-25T08:08:58.444Z,1011.73
2017-05-25T08:09:38.903Z,1011.74
2017-05-25T08:10:19.393Z,1011.76
2017-05-25T08:10:59.904Z,1011.71
2017-05-25T08:11:40.405Z,1011.72
2017-05-25T08:12:20.893Z,1011.75
2017-05-25T08:13:01.392Z,1011.76
2017-05-25T08:13:41.878Z,1011.75
2017-05-25T08:14:22.376Z,1011.78
2017-05-25T08:15:02.866Z,1011.75
2017-05-25T08:15:43.359Z,1011.77
2017-05-25T08:16:24.740Z,1011.78
2017-05-25T08:17:05.227Z,1011.77
2017-05-25T08:17:45.718Z,1011.78
2017-05-25T08:18:26.210Z,1011.8
2017-05-25T08:19:06.780Z,1011.82
2017-05-25T08:19:47.326Z,1011.71
2017-05-25T08:20:27.931Z,1011.67
2017-05-25T08:21:08.417Z,1011.65
2017-05-25T08:21:48.922Z,1011.68
2017-05-25T08:22:29.407Z,1011.64
2017-05-25T08:23:09.908Z,1011.65
2017-05-25T08:23:50.422Z,1011.71
2017-05-25T08:24:30.917Z,1011.72